Narita International Airport
RJAA : now visible

Airfield :











YOU CAN JOIN US ON...

 
LOGIN :

Register | Disclaimer

   EN    FR    IT 

 









Legend :    VFR   Marginal VFR   IFR   Intensive IFR   Very Intensive IFR
Visi :
Ceiling :
>= 8 km
>= 3000ft
5 to 8 km
1000 to 3000 ft
1500m to 5 km
500 to 1000 ft
800 to 1500m
200 to 500 ft
< 800m
< 200 ft
Symbols :   Thunderstorms  Fog  Heavy snow  Heavy precipitations  Wind > 20 kt







- Airport Elevation : 141 ft
- IATA code : NRT


RJAA - Narita International

CURRENT METAR :
  • 170300Z 33010KT 9999 FEW030 SCT060 09/M08 Q1014 NOSIG RMK 1CU030 4SC060 A2996 VIRGA SW

EXPIRED METARs :
  • 170230Z 33012KT 9999 FEW030 SCT070 08/M08 Q1015 NOSIG RMK 1CU030 4AC070 A2997
  • 170200Z 33010KT 280V350 9999 FEW030 BKN070 08/M07 Q1015 NOSIG RMK 1CU030 6AC070 A2998
  • 170130Z 35006KT 300V030 9999 FEW030 BKN060 07/M07 Q1015 NOSIG RMK 1CU030 6SC060 A2999
  • 170100Z 35008KT 9999 FEW030 BKN060 06/M06 Q1015 NOSIG RMK 1CU030 5SC060 A2999
  • 170030Z 33006KT 9999 FEW030 BKN060 05/M07 Q1015 NOSIG RMK 1CU030 6SC060 A2999

TAF TAF RJAA
Valid from the 17 at 00:00 until the 18 at 06:00 UTC


162305Z 1700/1806 34008KT 9999 FEW030
RJJJ FIR / Asia



MET'MAP, your aeronautical weather chart ! - Copyright ORBIFLY December 2007 - Disclaimer

ORBIFLY MET'MAP TEAM :

Programming & Development : Alexandra Zaïnal
Concept & Development : Baudouin d'Aumeries
Co-Development & Prog : Marc-Olivier Méhu
Technical & hardware support : Manuel Goepfert

Contact : metmap@orbifly.com




SOURCES & CREDITS :

   NOAA       Earth
Advisory